Time;durP1;ratioP1;P1;durP2;ratioP2;P2;SDS_P1;SDS_P2;PMS_P1;PMS_P2;Temp;Humidity;BMP_temperature;BMP_pressure;BME280_temperature;BME280_humidity;BME280_pressure;Samples;Min_cycle;Max_cycle;Signal;HPM_P1;HPM_P2
2022/04/06 00:01:16;;;;;;;4.33;3.30;;;8.90;99.90;8.80;99228.00;;;;4839662;28;116375;-67
2022/04/06 00:03:43;;;;;;;4.57;3.63;;;8.90;99.90;8.80;99233.00;;;;4839661;28;109818;-66
2022/04/06 00:06:09;;;;;;;7.77;3.50;;;8.90;99.90;8.80;99215.00;;;;4840626;28;87800;-65
2022/04/06 00:08:35;;;;;;;5.97;4.77;;;8.80;99.90;8.80;99230.00;;;;4822231;28;103536;-65
2022/04/06 00:11:01;;;;;;;5.10;4.40;;;8.80;99.90;8.80;99231.00;;;;4839080;28;113950;-65
2022/04/06 00:13:26;;;;;;;5.67;3.73;;;8.80;99.90;8.80;99235.00;;;;4840705;28;89830;-63
2022/04/06 00:15:52;;;;;;;7.17;4.83;;;9.10;99.90;8.80;99232.00;;;;4839625;28;109112;-63
2022/04/06 00:18:18;;;;;;;6.43;4.37;;;8.80;99.90;8.80;99235.00;;;;4832620;28;115929;-66
2022/04/06 00:20:43;;;;;;;6.83;4.77;;;8.80;99.90;8.80;99227.00;;;;4837507;28;106683;-66
2022/04/06 00:23:09;;;;;;;5.40;4.47;;;8.50;99.90;8.80;99224.00;;;;4833839;28;108951;-65
2022/04/06 00:25:35;;;;;;;6.07;4.80;;;8.80;99.90;8.80;99235.00;;;;4837375;28;88362;-66
2022/04/06 00:28:01;;;;;;;5.40;4.30;;;8.80;99.90;8.70;99230.00;;;;4835671;28;117400;-67
2022/04/06 00:30:26;;;;;;;6.67;4.00;;;8.80;99.90;8.80;99241.00;;;;4832926;28;117261;-67
2022/04/06 00:32:52;;;;;;;8.70;4.50;;;8.80;99.90;8.70;99230.00;;;;4836206;28;109012;-64
2022/04/06 00:35:30;;;;;;;7.77;4.73;;;8.80;99.90;8.80;99226.00;;;;4834638;28;109513;-65
2022/04/06 00:38:02;;;;;;;6.07;4.33;;;8.80;99.90;8.80;99234.00;;;;4836064;28;89342;-64
2022/04/06 00:40:29;;;;;;;5.57;3.83;;;8.80;99.90;8.80;99231.00;;;;4836499;28;88981;-64
2022/04/06 00:42:55;;;;;;;6.30;4.63;;;8.80;99.90;8.80;99235.00;;;;4844964;28;95370;-66
2022/04/06 00:45:22;;;;;;;5.70;4.37;;;8.80;99.90;8.80;99237.00;;;;4840742;28;87708;-64
2022/04/06 00:47:48;;;;;;;6.90;5.10;;;8.80;99.90;8.80;99227.00;;;;4840166;28;88286;-65
2022/04/06 00:50:14;;;;;;;5.17;4.47;;;8.80;99.90;8.80;99228.00;;;;4839830;28;87928;-65
2022/04/06 00:52:41;;;;;;;9.50;4.70;;;8.80;99.90;8.80;99214.00;;;;4827359;28;89895;-66
2022/04/06 00:55:08;;;;;;;6.63;4.37;;;8.90;99.90;8.80;99221.00;;;;4851677;28;107586;-65
2022/04/06 00:57:35;;;;;;;5.30;3.77;;;8.90;99.90;8.80;99223.00;;;;4839144;28;89000;-65
2022/04/06 01:00:03;;;;;;;6.63;3.93;;;8.90;99.90;8.80;99211.00;;;;4820046;29;97134;-66
2022/04/06 01:02:28;;;;;;;6.50;4.10;;;8.80;99.90;8.80;99223.00;;;;4820471;29;87810;-66
2022/04/06 01:04:54;;;;;;;14.13;6.07;;;8.80;99.90;8.80;99210.00;;;;4835675;28;108889;-65
2022/04/06 01:07:22;;;;;;;8.20;5.03;;;8.80;99.90;8.80;99218.00;;;;4836199;28;88845;-67
2022/04/06 01:09:48;;;;;;;10.47;5.30;;;8.90;99.90;8.80;99220.00;;;;4836557;28;88667;-66
2022/04/06 01:12:15;;;;;;;3.63;2.80;;;8.90;99.90;8.80;99219.00;;;;4839707;28;87643;-66
2022/04/06 01:14:41;;;;;;;10.57;5.43;;;8.80;99.90;8.80;99219.00;;;;4854024;28;88092;-66
2022/04/06 01:17:09;;;;;;;5.30;4.43;;;8.90;99.90;8.80;99215.00;;;;4839008;28;107770;-66
2022/04/06 01:19:43;;;;;;;5.90;4.30;;;8.90;99.90;8.80;99211.00;;;;4826458;28;88160;-66
2022/04/06 01:22:14;;;;;;;7.40;4.23;;;8.90;99.90;8.80;99211.00;;;;4820838;29;87670;-66
2022/04/06 01:24:42;;;;;;;7.67;5.47;;;8.90;99.90;8.80;99215.00;;;;4837590;28;88536;-66
2022/04/06 01:27:09;;;;;;;6.50;4.43;;;8.90;99.90;8.90;99213.00;;;;4852115;28;87972;-66
2022/04/06 01:29:35;;;;;;;6.33;4.33;;;8.90;99.90;8.90;99213.00;;;;4839444;28;88037;-66
2022/04/06 01:32:12;;;;;;;6.43;4.20;;;8.90;99.90;8.80;99209.00;;;;4840093;28;87643;-66
2022/04/06 01:34:41;;;;;;;6.20;4.33;;;8.90;99.90;8.80;99208.00;;;;4824581;28;88005;-66
2022/04/06 01:37:08;;;;;;;6.83;4.47;;;8.90;99.90;8.80;99213.00;;;;4831785;28;89194;-66
2022/04/06 01:39:36;;;;;;;7.17;4.30;;;8.90;99.90;8.80;99212.00;;;;4828173;28;87866;-66
2022/04/06 01:42:03;;;;;;;7.70;4.80;;;8.90;99.90;8.80;99206.00;;;;4839512;28;87050;-65
2022/04/06 01:44:29;;;;;;;7.00;4.80;;;8.90;99.90;8.90;99208.00;;;;4839026;28;88446;-66
2022/04/06 01:46:55;;;;;;;5.93;4.10;;;8.90;99.90;8.90;99215.00;;;;4839086;28;88887;-67
2022/04/06 01:52:12;;;;;;;6.77;4.47;;;8.90;99.90;8.90;99219.00;;;;4841280;28;87977;-65
2022/04/06 01:54:48;;;;;;;7.03;4.40;;;8.90;99.90;8.90;99212.00;;;;4844154;28;87682;-66
2022/04/06 01:57:15;;;;;;;4.93;4.13;;;8.90;99.90;8.90;99211.00;;;;4838447;28;88673;-65
2022/04/06 01:59:41;;;;;;;6.13;4.70;;;8.90;99.90;8.90;99220.00;;;;4837950;28;90947;-65
2022/04/06 02:02:09;;;;;;;6.50;4.10;;;8.90;99.90;8.90;99225.00;;;;4839078;28;87997;-65
2022/04/06 02:04:36;;;;;;;6.47;4.27;;;9.00;99.90;8.90;99218.00;;;;4841856;28;87961;-65
2022/04/06 02:07:02;;;;;;;7.50;5.10;;;9.00;99.90;8.90;99221.00;;;;4841420;28;103776;-65
2022/04/06 02:09:27;;;;;;;5.23;4.20;;;9.00;99.90;8.90;99212.00;;;;4838863;28;107603;-65
2022/04/06 02:11:54;;;;;;;8.23;5.03;;;8.90;99.90;8.90;99213.00;;;;4841080;28;111289;-64
2022/04/06 02:14:20;;;;;;;8.77;5.53;;;9.00;99.90;8.90;99217.00;;;;4840904;28;88806;-65
2022/04/06 02:16:45;;;;;;;5.70;4.40;;;8.90;99.90;8.90;99211.00;;;;4841460;28;99686;-65
2022/04/06 02:19:11;;;;;;;9.33;5.40;;;8.90;99.90;8.90;99206.00;;;;4840577;28;117592;-64
2022/04/06 02:21:37;;;;;;;7.13;4.83;;;8.90;99.90;8.90;99202.00;;;;4841626;28;87465;-65
2022/04/06 02:24:03;;;;;;;7.77;4.63;;;9.00;99.90;8.90;99199.00;;;;4841580;28;87737;-65
2022/04/06 02:26:29;;;;;;;8.97;6.20;;;8.90;99.90;8.90;99196.00;;;;4840899;28;104309;-66
2022/04/06 02:28:57;;;;;;;9.57;5.53;;;8.90;99.90;8.90;99198.00;;;;4841576;28;88988;-67
2022/04/06 02:31:23;;;;;;;6.23;5.20;;;9.00;99.90;8.90;99195.00;;;;4842851;28;87063;-67
2022/04/06 02:33:49;;;;;;;10.77;5.73;;;9.00;99.90;8.90;99198.00;;;;4840595;28;87698;-65
2022/04/06 02:36:15;;;;;;;7.50;5.50;;;8.90;99.90;8.90;99184.00;;;;4841304;28;101987;-67
2022/04/06 02:38:41;;;;;;;11.90;6.10;;;9.00;99.90;8.90;99194.00;;;;4840724;28;88791;-65
2022/04/06 02:41:08;;;;;;;8.10;5.53;;;9.00;99.90;8.90;99189.00;;;;4855616;28;88041;-65
2022/04/06 02:43:35;;;;;;;8.93;5.87;;;9.00;99.90;8.90;99202.00;;;;4823976;28;88165;-65
2022/04/06 02:46:01;;;;;;;6.60;4.53;;;8.90;99.90;8.90;99199.00;;;;4840614;28;117041;-64
2022/04/06 02:48:27;;;;;;;9.10;6.43;;;9.00;99.90;9.00;99181.00;;;;4841092;28;89403;-66
2022/04/06 02:50:52;;;;;;;8.90;5.97;;;9.00;99.90;9.00;99189.00;;;;4840608;28;109088;-65
2022/04/06 02:53:18;;;;;;;7.50;5.70;;;9.00;99.90;9.00;99177.00;;;;4850557;28;108983;-65
2022/04/06 02:55:44;;;;;;;9.10;6.17;;;9.00;99.90;9.00;99192.00;;;;4855263;28;89524;-65
2022/04/06 02:58:09;;;;;;;9.53;6.47;;;9.00;99.90;9.00;99185.00;;;;4840574;28;116992;-66
2022/04/06 03:00:35;;;;;;;7.63;6.37;;;9.00;99.90;9.00;99192.00;;;;4840285;28;111263;-66
2022/04/06 03:03:02;;;;;;;8.57;6.10;;;9.00;99.90;9.00;99183.00;;;;4840501;28;88689;-66
2022/04/06 03:05:28;;;;;;;11.73;6.53;;;9.00;99.90;9.00;99204.00;;;;4841472;28;88472;-64
2022/04/06 03:07:54;;;;;;;10.40;6.90;;;9.00;99.90;9.00;99191.00;;;;4841227;28;102241;-67
2022/04/06 03:10:20;;;;;;;6.60;4.77;;;9.10;99.90;9.00;99197.00;;;;4842298;28;88187;-65
2022/04/06 03:12:46;;;;;;;12.67;6.70;;;9.00;99.90;9.00;99198.00;;;;4840201;28;99616;-68
2022/04/06 03:15:12;;;;;;;9.00;6.33;;;9.10;99.90;9.00;99201.00;;;;4839301;28;116290;-66
2022/04/06 03:17:38;;;;;;;8.83;6.40;;;9.00;99.90;9.00;99200.00;;;;4841344;28;87961;-66
2022/04/06 03:20:06;;;;;;;14.03;7.40;;;9.10;99.90;9.00;99195.00;;;;4841216;28;87444;-66
2022/04/06 03:22:31;;;;;;;11.57;5.83;;;9.10;99.90;9.00;99204.00;;;;4840899;28;90947;-66
2022/04/06 03:24:57;;;;;;;8.40;5.70;;;9.10;99.90;9.00;99198.00;;;;4839160;28;117527;-67
2022/04/06 03:27:23;;;;;;;11.80;7.37;;;9.10;99.90;9.00;99207.00;;;;4839021;28;117459;-66
2022/04/06 03:29:49;;;;;;;10.37;6.73;;;9.10;99.90;9.10;99187.00;;;;4839294;28;110613;-67
2022/04/06 03:32:16;;;;;;;9.73;6.30;;;9.10;99.90;9.00;99187.00;;;;4822946;28;87790;-68
2022/04/06 03:34:41;;;;;;;8.77;6.40;;;9.10;99.90;9.00;99197.00;;;;4838538;28;117091;-68
2022/04/06 03:37:07;;;;;;;8.80;6.17;;;9.10;99.90;9.00;99194.00;;;;4853883;28;114875;-67
2022/04/06 03:39:33;;;;;;;11.07;6.20;;;9.10;99.90;9.00;99194.00;;;;4839666;28;108410;-66
2022/04/06 03:41:59;;;;;;;6.47;5.30;;;9.10;99.90;9.00;99196.00;;;;4839058;28;107246;-67
2022/04/06 03:44:25;;;;;;;9.80;6.47;;;9.10;99.90;9.00;99199.00;;;;4839603;28;116801;-66
2022/04/06 03:46:50;;;;;;;7.77;6.00;;;9.10;99.90;9.00;99191.00;;;;4839446;28;116525;-65
2022/04/06 03:49:16;;;;;;;10.63;6.40;;;9.00;99.90;9.00;99195.00;;;;4838877;28;105591;-66
2022/04/06 03:51:43;;;;;;;11.50;6.20;;;9.10;99.90;9.00;99190.00;;;;4841455;28;88726;-66
2022/04/06 03:54:09;;;;;;;9.13;5.73;;;9.10;99.90;9.00;99189.00;;;;4847391;28;89733;-67
2022/04/06 03:56:35;;;;;;;6.07;4.97;;;9.10;99.90;9.00;99185.00;;;;4839290;28;118031;-67
2022/04/06 03:59:01;;;;;;;8.57;6.47;;;9.10;99.90;9.00;99188.00;;;;4840518;28;88143;-66
2022/04/06 04:01:30;;;;;;;10.23;6.63;;;9.10;99.90;9.00;99193.00;;;;4840379;28;87538;-66
2022/04/06 04:03:56;;;;;;;9.37;5.87;;;9.10;99.90;9.00;99195.00;;;;4839665;28;88159;-66
2022/04/06 04:06:21;;;;;;;8.50;4.90;;;9.10;99.90;9.00;99214.00;;;;4839846;28;108572;-65
2022/04/06 04:08:47;;;;;;;11.60;5.27;;;9.10;99.90;9.10;99196.00;;;;4839826;28;87063;-65
2022/04/06 04:11:13;;;;;;;9.03;5.57;;;9.10;99.90;9.10;99208.00;;;;4840099;28;108545;-65
2022/04/06 04:13:38;;;;;;;10.93;5.17;;;9.10;99.90;9.10;99214.00;;;;4838614;28;117807;-65
2022/04/06 04:16:05;;;;;;;8.17;4.70;;;9.10;99.90;9.10;99207.00;;;;4837972;28;118318;-66
2022/04/06 04:18:31;;;;;;;5.87;4.47;;;9.10;99.90;9.10;99207.00;;;;4840249;28;87870;-66
2022/04/06 04:23:41;;;;;;;9.97;4.57;;;9.10;99.90;9.00;99217.00;;;;4837937;28;87796;-66
2022/04/06 04:26:07;;;;;;;13.00;4.73;;;9.10;99.90;9.00;99217.00;;;;4838804;28;88745;-66
2022/04/06 04:28:33;;;;;;;7.23;5.40;;;9.10;99.90;9.10;99211.00;;;;4805080;28;95266;-66
2022/04/06 04:30:59;;;;;;;7.13;4.93;;;9.10;99.90;9.10;99213.00;;;;4822397;28;87601;-66
2022/04/06 04:33:25;;;;;;;5.83;4.90;;;9.10;99.90;9.10;99212.00;;;;4838666;28;117091;-65
2022/04/06 04:35:50;;;;;;;5.80;4.60;;;9.30;99.90;9.10;99219.00;;;;4838723;28;115265;-66
2022/04/06 04:38:16;;;;;;;9.90;5.47;;;9.10;99.90;9.10;99213.00;;;;4838996;28;110469;-66
2022/04/06 04:40:42;;;;;;;7.23;5.53;;;9.10;99.90;9.10;99225.00;;;;4837831;28;108207;-65
2022/04/06 04:43:07;;;;;;;10.53;7.30;;;9.10;99.90;9.10;99217.00;;;;4838457;28;117118;-65
2022/04/06 04:45:33;;;;;;;11.40;7.97;;;9.10;99.90;9.10;99218.00;;;;4839090;28;117087;-66
2022/04/06 04:47:59;;;;;;;12.87;6.67;;;9.10;99.90;9.10;99226.00;;;;4838453;28;110721;-66
2022/04/06 04:50:25;;;;;;;10.33;6.00;;;9.20;99.90;9.10;99218.00;;;;4840131;28;89224;-66
2022/04/06 04:52:51;;;;;;;10.93;6.27;;;9.10;99.90;9.10;99220.00;;;;4848840;28;106156;-65
2022/04/06 04:55:18;;;;;;;8.37;5.87;;;9.10;99.90;9.10;99219.00;;;;4838279;28;116290;-68
2022/04/06 04:57:44;;;;;;;8.67;6.30;;;9.20;99.90;9.10;99236.00;;;;4853323;28;87147;-65
2022/04/06 05:00:11;;;;;;;9.20;6.40;;;9.20;99.90;9.10;99233.00;;;;4839311;28;98087;-66
2022/04/06 05:02:37;;;;;;;8.63;6.07;;;9.20;99.90;9.10;99237.00;;;;4840033;28;88144;-67
2022/04/06 05:05:05;;;;;;;7.33;5.07;;;9.10;99.90;9.10;99232.00;;;;4837934;28;88725;-67
2022/04/06 05:07:33;;;;;;;9.03;6.23;;;9.10;99.90;9.10;99232.00;;;;4821714;28;87870;-67
2022/04/06 05:09:59;;;;;;;9.30;6.70;;;9.10;99.90;9.10;99238.00;;;;4839741;28;87831;-68
2022/04/06 05:12:26;;;;;;;8.37;5.30;;;9.10;99.90;9.10;99235.00;;;;4852285;28;116273;-67
2022/04/06 05:14:52;;;;;;;8.83;5.23;;;9.10;99.90;9.10;99230.00;;;;4837090;28;88127;-66
2022/04/06 05:17:17;;;;;;;8.00;4.90;;;9.10;99.90;9.00;99231.00;;;;4839378;28;87917;-67
2022/04/06 05:19:43;;;;;;;9.40;5.40;;;9.10;99.90;9.00;99224.00;;;;4838999;28;87836;-66
2022/04/06 05:22:09;;;;;;;5.20;4.23;;;9.10;99.90;9.00;99227.00;;;;4836016;28;116420;-66
2022/04/06 05:24:35;;;;;;;9.00;5.37;;;9.10;99.90;9.00;99236.00;;;;4837747;28;88847;-67
2022/04/06 05:27:02;;;;;;;7.47;4.27;;;9.10;99.90;9.00;99237.00;;;;4839696;28;87641;-67
2022/04/06 05:29:28;;;;;;;5.63;4.50;;;9.10;99.90;9.00;99238.00;;;;4821246;28;88806;-67
2022/04/06 05:31:53;;;;;;;6.33;4.83;;;9.00;99.90;9.00;99238.00;;;;4821145;28;117414;-66
2022/04/06 05:34:19;;;;;;;7.87;4.50;;;9.50;99.90;9.00;99240.00;;;;4837421;28;115976;-66
2022/04/06 05:36:45;;;;;;;7.60;4.63;;;9.10;99.90;9.00;99239.00;;;;4839562;28;87874;-65
2022/04/06 05:39:11;;;;;;;7.53;4.40;;;9.10;99.90;9.00;99245.00;;;;4840250;28;90076;-66
2022/04/06 05:41:36;;;;;;;8.17;3.93;;;9.10;99.90;9.00;99236.00;;;;4840989;28;118694;-65
2022/04/06 05:44:02;;;;;;;8.90;5.00;;;9.00;99.90;9.00;99243.00;;;;4842584;28;87924;-66
2022/04/06 05:46:29;;;;;;;9.07;4.67;;;9.00;99.90;9.00;99239.00;;;;4843019;28;86999;-66
2022/04/06 05:48:55;;;;;;;6.23;4.63;;;9.10;99.90;9.10;99249.00;;;;4842084;28;88026;-65
2022/04/06 05:51:21;;;;;;;10.37;4.87;;;9.10;99.90;9.10;99255.00;;;;4841749;28;87759;-66
2022/04/06 05:53:47;;;;;;;6.03;4.37;;;9.20;99.90;9.10;99255.00;;;;4851164;28;88605;-67
2022/04/06 05:56:13;;;;;;;7.53;5.50;;;9.20;99.90;9.20;99263.00;;;;4842135;28;99417;-67
2022/04/06 05:58:40;;;;;;;7.13;5.00;;;9.20;99.90;9.20;99265.00;;;;4824455;28;88034;-66
2022/04/06 06:01:06;;;;;;;8.17;5.13;;;9.70;99.90;9.20;99259.00;;;;4842588;28;87784;-67
2022/04/06 06:03:32;;;;;;;5.67;5.07;;;9.20;99.90;9.20;99266.00;;;;4841627;28;110355;-68
2022/04/06 06:05:57;;;;;;;8.67;5.67;;;9.20;99.90;9.20;99266.00;;;;4841398;28;101392;-65
2022/04/06 06:08:23;;;;;;;11.90;5.70;;;9.30;99.90;9.20;99277.00;;;;4846960;28;107174;-65
2022/04/06 06:10:49;;;;;;;9.30;5.93;;;9.30;99.90;9.30;99268.00;;;;4846943;28;115969;-65
2022/04/06 06:13:15;;;;;;;9.47;5.40;;;9.30;99.90;9.30;99274.00;;;;4840462;28;116814;-67
2022/04/06 06:15:40;;;;;;;9.13;6.20;;;9.30;99.90;9.30;99265.00;;;;4840611;28;110446;-66
2022/04/06 06:18:08;;;;;;;8.57;5.43;;;9.30;99.90;9.30;99270.00;;;;4840010;28;109004;-67
2022/04/06 06:20:34;;;;;;;7.83;6.13;;;9.30;99.90;9.30;99271.00;;;;4823860;28;89045;-68
2022/04/06 06:23:00;;;;;;;8.80;6.63;;;9.30;99.90;9.40;99264.00;;;;4841460;28;87793;-67
2022/04/06 06:25:26;;;;;;;9.23;6.17;;;9.40;99.90;9.50;99276.00;;;;4840641;28;111690;-67
2022/04/06 06:27:52;;;;;;;8.70;5.97;;;9.50;99.90;9.50;99259.00;;;;4841635;28;87861;-67
2022/04/06 06:30:19;;;;;;;9.97;7.17;;;9.50;99.90;9.60;99253.00;;;;4823155;28;87812;-68
2022/04/06 06:32:45;;;;;;;10.03;6.00;;;9.50;99.90;9.60;99257.00;;;;4841628;28;88277;-66
2022/04/06 06:35:11;;;;;;;9.57;6.23;;;9.30;99.90;9.70;99261.00;;;;4841340;28;87184;-68
2022/04/06 06:37:48;;;;;;;10.67;6.83;;;9.70;99.90;9.70;99257.00;;;;4841123;28;87789;-66
2022/04/06 06:40:16;;;;;;;8.33;6.43;;;9.80;99.90;9.80;99254.00;;;;4823721;28;87938;-66
2022/04/06 06:42:42;;;;;;;10.53;6.07;;;9.80;99.90;9.90;99267.00;;;;4840753;28;88734;-67
2022/04/06 06:45:08;;;;;;;7.83;5.27;;;9.90;99.90;9.90;99271.00;;;;4840710;28;91652;-66
2022/04/06 06:47:34;;;;;;;8.87;6.07;;;9.90;99.90;10.00;99266.00;;;;4841251;28;87948;-66
2022/04/06 06:50:00;;;;;;;7.67;6.53;;;10.00;99.90;10.00;99263.00;;;;4839433;28;105108;-66
2022/04/06 06:52:25;;;;;;;10.77;7.03;;;10.00;99.90;10.10;99257.00;;;;4846945;28;118492;-66
2022/04/06 06:54:51;;;;;;;11.13;7.03;;;10.10;99.90;10.10;99267.00;;;;4859854;28;87899;-66
2022/04/06 06:57:17;;;;;;;8.33;5.73;;;10.10;99.90;10.20;99266.00;;;;4858836;28;109314;-66
2022/04/06 06:59:42;;;;;;;7.77;6.17;;;10.20;99.90;10.20;99265.00;;;;4845166;28;116052;-66
2022/04/06 07:02:09;;;;;;;9.73;5.53;;;10.20;99.90;10.30;99262.00;;;;4840012;28;105443;-66
2022/04/06 07:04:36;;;;;;;9.93;5.47;;;10.30;99.90;10.40;99255.00;;;;4840489;28;87726;-66
2022/04/06 07:07:01;;;;;;;8.87;5.53;;;10.40;99.90;10.50;99262.00;;;;4840814;28;88757;-66
2022/04/06 07:09:27;;;;;;;7.77;5.50;;;10.50;99.90;10.60;99265.00;;;;4840773;28;88317;-66
2022/04/06 07:11:53;;;;;;;8.30;5.30;;;10.50;99.90;10.60;99259.00;;;;4839868;28;117028;-65
2022/04/06 07:14:19;;;;;;;11.17;6.07;;;10.60;99.90;10.70;99253.00;;;;4839986;28;108531;-66
2022/04/06 07:16:46;;;;;;;10.07;6.87;;;10.70;99.90;10.80;99247.00;;;;4843820;28;92145;-65
2022/04/06 07:19:11;;;;;;;6.17;4.77;;;10.80;99.90;10.90;99256.00;;;;4841976;28;88060;-64
2022/04/06 07:21:37;;;;;;;8.33;6.20;;;10.90;99.90;11.00;99257.00;;;;4841372;28;88090;-64
2022/04/06 07:24:03;;;;;;;14.37;5.13;;;10.90;99.90;11.10;99252.00;;;;4840108;28;111621;-64
2022/04/06 07:26:29;;;;;;;14.60;5.83;;;11.00;99.90;11.10;99260.00;;;;4840747;28;99207;-64
2022/04/06 07:28:55;;;;;;;9.47;4.53;;;11.10;99.90;11.20;99252.00;;;;4839511;28;108980;-65
2022/04/06 07:31:21;;;;;;;4.73;3.77;;;11.20;99.90;11.20;99260.00;;;;4839023;28;116364;-64
2022/04/06 07:33:47;;;;;;;8.37;3.93;;;11.20;99.90;11.20;99263.00;;;;4840407;28;87960;-65
2022/04/06 07:36:17;;;;;;;5.23;3.93;;;11.30;99.90;11.20;99271.00;;;;4839349;28;103413;-64
2022/04/06 07:38:43;;;;;;;7.10;4.23;;;11.20;99.90;11.20;99265.00;;;;4840800;28;88387;-65
2022/04/06 07:41:09;;;;;;;8.57;4.07;;;11.20;99.90;11.10;99259.00;;;;4842208;28;104424;-65
2022/04/06 07:43:35;;;;;;;6.83;3.73;;;11.20;99.90;11.10;99261.00;;;;4830850;28;87492;-65
2022/04/06 07:46:00;;;;;;;8.43;3.87;;;11.10;99.90;11.10;99259.00;;;;4839714;28;88172;-65
2022/04/06 07:48:27;;;;;;;5.17;3.30;;;11.10;99.90;11.10;99258.00;;;;4839218;28;116593;-65
2022/04/06 07:50:54;;;;;;;4.63;2.83;;;11.10;99.90;11.00;99248.00;;;;4840187;28;87962;-66
2022/04/06 07:53:20;;;;;;;2.63;2.30;;;11.10;99.90;11.00;99249.00;;;;4850745;28;88277;-65
2022/04/06 07:55:47;;;;;;;4.13;3.10;;;11.00;99.90;11.00;99269.00;;;;4838332;28;108869;-65
2022/04/06 07:58:13;;;;;;;4.10;2.50;;;11.00;99.90;11.00;99254.00;;;;4839927;28;88984;-65
2022/04/06 08:00:39;;;;;;;5.53;3.53;;;11.00;99.90;11.00;99260.00;;;;4839461;28;87805;-65
2022/04/06 08:03:05;;;;;;;3.67;2.47;;;11.00;99.90;11.00;99267.00;;;;4839114;28;110229;-66
2022/04/06 08:05:31;;;;;;;6.43;2.30;;;11.00;99.90;10.90;99262.00;;;;4839457;28;109458;-66
2022/04/06 08:07:56;;;;;;;3.77;2.23;;;10.90;99.90;10.90;99259.00;;;;4839522;28;89200;-65
2022/04/06 08:10:22;;;;;;;3.97;2.43;;;11.00;99.90;10.90;99261.00;;;;4838635;28;118035;-66
2022/04/06 08:12:49;;;;;;;3.60;2.47;;;10.90;99.90;10.90;99253.00;;;;4840857;28;87290;-65
2022/04/06 08:15:16;;;;;;;4.40;3.13;;;10.90;99.90;10.90;99262.00;;;;4839929;28;87886;-66
2022/04/06 08:17:45;;;;;;;5.10;2.53;;;10.90;99.90;10.90;99255.00;;;;4840071;28;88444;-64
2022/04/06 08:20:14;;;;;;;4.17;2.83;;;10.90;99.90;10.90;99263.00;;;;4838955;28;88631;-64
2022/04/06 08:22:41;;;;;;;5.57;2.40;;;11.00;99.90;10.90;99256.00;;;;4839856;28;87911;-65
2022/04/06 08:25:07;;;;;;;4.03;2.93;;;10.90;99.90;10.90;99262.00;;;;4839875;28;87542;-65
2022/04/06 08:27:39;;;;;;;3.30;2.50;;;10.90;99.90;11.00;99262.00;;;;4839224;28;88282;-65
2022/04/06 08:30:09;;;;;;;4.07;2.53;;;10.90;99.90;11.00;99256.00;;;;4839156;28;87959;-64
2022/04/06 08:32:34;;;;;;;4.13;2.83;;;11.00;99.90;11.00;99262.00;;;;4839454;28;87684;-65
2022/04/06 08:35:01;;;;;;;5.47;3.03;;;11.00;99.90;11.00;99266.00;;;;4839707;28;87799;-65
2022/04/06 08:37:30;;;;;;;4.03;2.20;;;11.00;99.90;11.00;99257.00;;;;4839443;28;115398;-64
2022/04/06 08:39:57;;;;;;;2.93;2.33;;;11.00;99.90;11.10;99264.00;;;;4838994;28;87603;-65
2022/04/06 08:42:25;;;;;;;3.90;2.93;;;11.10;99.90;11.10;99260.00;;;;4839242;28;87540;-64
2022/04/06 08:44:51;;;;;;;3.23;2.73;;;11.10;99.90;11.20;99261.00;;;;4839289;28;88804;-65
2022/04/06 08:47:18;;;;;;;4.40;2.87;;;11.10;99.90;11.20;99265.00;;;;4839994;28;87820;-64
2022/04/06 08:49:45;;;;;;;3.57;2.30;;;11.20;99.90;11.20;99257.00;;;;4838575;28;106113;-65
2022/04/06 08:52:12;;;;;;;3.57;2.33;;;11.20;99.90;11.30;99267.00;;;;4844700;28;87718;-64
2022/04/06 08:54:38;;;;;;;7.97;2.63;;;11.20;99.90;11.30;99266.00;;;;4843188;28;108815;-64
2022/04/06 08:57:05;;;;;;;5.00;2.70;;;11.20;99.90;11.30;99264.00;;;;4838741;28;118467;-66
2022/04/06 08:59:32;;;;;;;5.70;3.47;;;11.20;99.90;11.30;99268.00;;;;4821547;28;87844;-64
2022/04/06 09:01:58;;;;;;;2.87;2.30;;;11.30;99.90;11.30;99270.00;;;;4839779;28;87114;-65
2022/04/06 09:04:24;;;;;;;5.00;3.00;;;11.30;99.90;11.40;99263.00;;;;4839160;28;108382;-65
2022/04/06 09:06:51;;;;;;;4.47;2.50;;;11.40;99.90;11.40;99256.00;;;;4839339;28;88625;-64
2022/04/06 09:09:24;;;;;;;3.63;2.70;;;11.40;99.90;11.50;99259.00;;;;4837676;28;117336;-65
2022/04/06 09:11:50;;;;;;;6.50;2.53;;;11.50;99.90;11.50;99257.00;;;;4839339;28;87772;-65
2022/04/06 09:14:16;;;;;;;5.30;2.83;;;11.50;99.90;11.60;99269.00;;;;4840631;28;104605;-64
2022/04/06 09:16:42;;;;;;;3.13;2.70;;;11.50;99.90;11.70;99255.00;;;;4842520;28;88271;-65
2022/04/06 09:19:12;;;;;;;8.47;2.70;;;11.70;99.90;11.70;99260.00;;;;4841971;28;88090;-64
2022/04/06 09:21:43;;;;;;;3.00;2.50;;;11.60;99.90;11.80;99265.00;;;;4825467;28;87802;-65
2022/04/06 09:24:16;;;;;;;3.90;2.60;;;11.70;99.90;11.80;99267.00;;;;4824799;28;87954;-66
2022/04/06 09:26:43;;;;;;;7.53;2.57;;;11.80;99.90;11.90;99254.00;;;;4843082;28;86990;-64
2022/04/06 09:29:12;;;;;;;3.70;2.57;;;11.80;99.90;11.90;99249.00;;;;4841302;28;116562;-65
2022/04/06 09:31:40;;;;;;;5.77;3.27;;;11.90;99.90;12.00;99248.00;;;;4841990;28;87859;-66
2022/04/06 09:34:10;;;;;;;6.47;2.30;;;11.90;99.90;12.00;99253.00;;;;4841503;28;88768;-65
2022/04/06 09:36:38;;;;;;;4.20;2.30;;;12.00;99.90;12.10;99234.00;;;;4842066;28;88730;-66
2022/04/06 09:39:05;;;;;;;4.43;2.60;;;12.00;99.90;12.10;99237.00;;;;4841144;28;88472;-65
2022/04/06 09:41:32;;;;;;;2.67;2.03;;;12.00;99.90;12.10;99237.00;;;;4842625;28;87916;-65
2022/04/06 09:50:22;;;;;;;4.07;3.07;;;12.20;99.90;12.40;99235.00;;;;4841025;28;87708;-65
2022/04/06 09:52:51;;;;;;;4.90;3.13;;;12.40;99.90;12.50;99234.00;;;;4851762;28;87047;-66
2022/04/06 09:55:19;;;;;;;5.80;2.23;;;12.40;99.90;12.60;99231.00;;;;4824735;28;87898;-65
2022/04/06 09:57:53;;;;;;;2.40;2.13;;;12.50;99.90;12.70;99228.00;;;;4840649;28;106469;-65
2022/04/06 10:00:23;;;;;;;3.03;2.07;;;12.60;99.90;12.80;99214.00;;;;4841184;28;88576;-65
2022/04/06 10:02:54;;;;;;;2.47;1.40;;;12.80;99.90;13.00;99219.00;;;;4842332;28;87667;-65
2022/04/06 10:05:21;;;;;;;7.13;2.43;;;12.80;99.90;13.00;99216.00;;;;4841203;28;108077;-65
2022/04/06 10:07:48;;;;;;;4.43;2.97;;;12.90;99.90;13.20;99223.00;;;;4835008;28;88098;-65
2022/04/06 10:10:14;;;;;;;5.27;2.60;;;13.00;99.90;13.30;99218.00;;;;4840552;28;88092;-64
2022/04/06 10:12:40;;;;;;;3.40;1.67;;;13.20;99.90;13.50;99222.00;;;;4841771;28;87755;-65
2022/04/06 10:15:07;;;;;;;3.43;2.50;;;13.40;99.90;13.60;99214.00;;;;4842046;28;87738;-66
2022/04/06 10:17:35;;;;;;;4.97;2.27;;;13.50;99.90;13.70;99210.00;;;;4841982;28;86995;-66
2022/04/06 10:20:36;;;;;;;4.47;2.10;;;13.60;99.90;13.70;99208.00;;;;4841577;28;88849;-65
2022/04/06 10:23:40;;;;;;;5.13;2.00;;;13.60;99.90;13.70;99197.00;;;;4855622;28;87906;-65
2022/04/06 10:27:03;;;;;;;3.97;2.17;;;13.70;99.90;13.70;99198.00;;;;4841637;28;88895;-65
2022/04/06 10:29:28;;;;;;;4.23;1.73;;;13.60;99.90;13.70;99200.00;;;;4823437;28;90114;-65
2022/04/06 10:31:54;;;;;;;4.03;2.37;;;13.60;99.90;13.80;99194.00;;;;4839663;28;118589;-65
2022/04/06 10:34:30;;;;;;;4.90;2.00;;;13.70;99.90;13.80;99182.00;;;;4841428;28;87814;-65
2022/04/06 10:37:16;;;;;;;2.97;2.23;;;13.80;99.90;13.90;99186.00;;;;4842178;28;87940;-66
2022/04/06 10:39:54;;;;;;;4.40;2.23;;;13.80;99.90;13.90;99177.00;;;;4825547;28;89993;-66
2022/04/06 10:42:33;;;;;;;4.20;1.60;;;13.90;99.90;13.90;99177.00;;;;4850729;28;87633;-67
2022/04/06 10:45:00;;;;;;;1.57;1.30;;;13.90;99.60;13.80;99182.00;;;;4846398;28;86933;-64
2022/04/06 10:47:29;;;;;;;3.70;2.17;;;13.80;97.80;13.80;99181.00;;;;4859103;28;87418;-65
2022/04/06 10:50:21;;;;;;;1.80;1.33;;;13.70;96.20;13.70;99179.00;;;;4841417;28;87721;-64
2022/04/06 10:52:47;;;;;;;5.83;2.00;;;13.60;97.30;13.60;99170.00;;;;4851283;28;88715;-65
2022/04/06 10:55:24;;;;;;;5.80;2.33;;;13.60;97.00;13.50;99185.00;;;;4841811;28;88289;-66
2022/04/06 10:58:04;;;;;;;2.73;2.13;;;13.50;95.60;13.40;99181.00;;;;4841177;28;87769;-66
2022/04/06 11:00:30;;;;;;;2.60;1.77;;;13.50;96.90;13.40;99174.00;;;;4840599;28;96829;-65
2022/04/06 11:03:15;;;;;;;3.50;2.33;;;13.40;96.40;13.30;99175.00;;;;4840810;28;88059;-68
2022/04/06 11:05:59;;;;;;;2.83;1.90;;;13.30;97.30;13.20;99178.00;;;;4829739;28;87694;-67
2022/04/06 11:11:45;;;;;;;1.37;1.20;;;13.20;96.50;13.20;99175.00;;;;4841187;28;87109;-66
2022/04/06 11:14:13;;;;;;;2.50;1.57;;;13.10;97.70;13.20;99183.00;;;;4841270;28;87880;-65
2022/04/06 11:16:44;;;;;;;2.37;1.30;;;13.10;97.60;13.30;99181.00;;;;4841263;28;87551;-65